Time,TemperatureF,DewpointF,PressureIn,WindDirection,WindDirectionDegrees,WindSpeedMPH,WindSpeedGustMPH,Humidity,HourlyPrecipIn,Conditions,Clouds,dailyrainin,SolarRadiationWatts/m^2,SoftwareType,DateUTC
2013-06-25 00:22:00,55.0,20.0,-100.00,WSW,241,4.0,11.0,25,0.00,,,0.00,0.000000,,2013-06-25 06:22:00,
2013-06-25 00:33:00,55.0,20.0,-100.00,WSW,241,4.0,11.0,25,0.00,,,0.00,0.000000,,2013-06-25 06:33:00,
2013-06-25 00:43:00,55.0,20.0,-100.00,WSW,241,4.0,11.0,25,0.00,,,0.00,0.000000,,2013-06-25 06:43:00,
2013-06-25 00:52:00,55.0,20.0,-100.00,WSW,241,4.0,11.0,25,0.00,,,0.00,0.000000,,2013-06-25 06:52:00,
2013-06-25 01:22:00,54.0,22.0,-100.00,West,266,3.0,15.0,28,0.00,,,0.00,0.000000,,2013-06-25 07:22:00,
2013-06-25 01:33:00,54.0,22.0,-100.00,West,266,3.0,15.0,28,0.00,,,0.00,0.000000,,2013-06-25 07:33:00,
2013-06-25 01:43:00,54.0,22.0,-100.00,West,266,3.0,15.0,28,0.00,,,0.00,0.000000,,2013-06-25 07:43:00,
2013-06-25 01:52:00,54.0,22.0,-100.00,West,266,3.0,15.0,28,0.00,,,0.00,0.000000,,2013-06-25 07:52:00,
2013-06-25 02:21:00,54.0,22.0,-100.00,ENE,66,2.0,8.0,28,0.00,,,0.00,0.000000,,2013-06-25 08:21:00,
2013-06-25 02:34:00,54.0,22.0,-100.00,ENE,66,2.0,8.0,28,0.00,,,0.00,0.000000,,2013-06-25 08:34:00,
2013-06-25 02:43:00,54.0,22.0,-100.00,ENE,66,2.0,8.0,28,0.00,,,0.00,0.000000,,2013-06-25 08:43:00,
2013-06-25 02:52:00,54.0,22.0,-100.00,ENE,66,2.0,8.0,28,0.00,,,0.00,0.000000,,2013-06-25 08:52:00,
2013-06-25 03:22:00,51.0,21.0,-100.00,ENE,61,3.0,5.0,31,0.00,,,0.00,0.000000,,2013-06-25 09:22:00,
2013-06-25 03:33:00,51.0,21.0,-100.00,ENE,61,3.0,5.0,31,0.00,,,0.00,0.000000,,2013-06-25 09:33:00,
2013-06-25 03:43:00,51.0,21.0,-100.00,ENE,61,3.0,5.0,31,0.00,,,0.00,0.000000,,2013-06-25 09:43:00,
2013-06-25 03:52:00,51.0,21.0,-100.00,ENE,61,3.0,5.0,31,0.00,,,0.00,0.000000,,2013-06-25 09:52:00,
2013-06-25 04:21:00,48.0,23.0,-100.00,East,87,3.0,5.0,37,0.00,,,0.00,0.000000,,2013-06-25 10:21:00,
2013-06-25 04:33:00,48.0,23.0,-100.00,East,87,3.0,5.0,37,0.00,,,0.00,0.000000,,2013-06-25 10:33:00,
2013-06-25 04:42:00,48.0,23.0,-100.00,East,87,3.0,5.0,37,0.00,,,0.00,0.000000,,2013-06-25 10:42:00,
2013-06-25 04:52:00,48.0,23.0,-100.00,East,87,3.0,5.0,37,0.00,,,0.00,0.000000,,2013-06-25 10:52:00,
2013-06-25 05:34:00,48.0,22.0,-100.00,East,89,2.0,5.0,35,0.00,,,0.00,0.000000,,2013-06-25 11:34:00,
2013-06-25 05:43:00,48.0,22.0,-100.00,East,89,2.0,5.0,35,0.00,,,0.00,0.000000,,2013-06-25 11:43:00,
2013-06-25 05:52:00,48.0,22.0,-100.00,East,89,2.0,5.0,35,0.00,,,0.00,0.000000,,2013-06-25 11:52:00,
2013-06-25 06:22:00,49.0,20.0,-100.00,SSE,150,1.0,6.0,32,0.00,,,0.00,3.000000,,2013-06-25 12:22:00,
2013-06-25 06:33:00,49.0,20.0,-100.00,SSE,150,1.0,6.0,32,0.00,,,0.00,3.000000,,2013-06-25 12:33:00,
2013-06-25 06:43:00,49.0,20.0,-100.00,SSE,150,1.0,6.0,32,0.00,,,0.00,3.000000,,2013-06-25 12:43:00,
2013-06-25 06:55:00,49.0,20.0,-100.00,SSE,150,1.0,6.0,32,0.00,,,0.00,3.000000,,2013-06-25 12:55:00,
2013-06-25 07:22:00,53.0,24.0,-100.00,NW,304,2.0,4.0,32,0.00,,,0.00,74.000000,,2013-06-25 13:22:00,
2013-06-25 07:42:00,53.0,24.0,-100.00,NW,304,2.0,4.0,32,0.00,,,0.00,74.000000,,2013-06-25 13:42:00,
2013-06-25 07:53:00,53.0,24.0,-100.00,NW,304,2.0,4.0,32,0.00,,,0.00,74.000000,,2013-06-25 13:53:00,
2013-06-25 08:34:00,54.0,27.0,-100.00,WSW,258,5.0,8.0,35,0.00,,,-99.99,256.000000,,2013-06-25 14:34:00,
2013-06-25 08:43:00,54.0,27.0,-100.00,WSW,258,5.0,8.0,35,0.00,,,-99.99,256.000000,,2013-06-25 14:43:00,
2013-06-25 08:53:00,54.0,27.0,-100.00,WSW,258,5.0,8.0,35,0.00,,,-99.99,256.000000,,2013-06-25 14:53:00,
2013-06-25 09:22:00,58.0,29.0,-100.00,West,264,7.0,11.0,33,0.00,,,0.00,451.000000,,2013-06-25 15:22:00,
2013-06-25 09:32:00,58.0,29.0,-100.00,West,264,7.0,11.0,33,0.00,,,0.00,451.000000,,2013-06-25 15:32:00,
2013-06-25 09:44:00,58.0,29.0,-100.00,West,264,7.0,11.0,33,0.00,,,0.00,451.000000,,2013-06-25 15:44:00,
2013-06-25 09:53:00,58.0,29.0,-100.00,West,264,7.0,11.0,33,0.00,,,0.00,451.000000,,2013-06-25 15:53:00,
2013-06-25 10:35:00,60.0,28.0,-100.00,West,277,14.0,23.0,30,0.00,,,0.00,641.000000,,2013-06-25 16:35:00,
2013-06-25 10:44:00,60.0,28.0,-100.00,West,277,14.0,23.0,30,0.00,,,0.00,641.000000,,2013-06-25 16:44:00,
2013-06-25 10:52:00,60.0,28.0,-100.00,West,277,14.0,23.0,30,0.00,,,0.00,641.000000,,2013-06-25 16:52:00,
2013-06-25 11:22:00,62.0,29.0,-100.00,West,267,14.0,26.0,29,0.00,,,0.00,788.000000,,2013-06-25 17:22:00,
2013-06-25 11:33:00,62.0,29.0,-100.00,West,267,14.0,26.0,29,0.00,,,0.00,788.000000,,2013-06-25 17:33:00,
2013-06-25 11:44:00,62.0,29.0,-100.00,West,267,14.0,26.0,29,0.00,,,0.00,788.000000,,2013-06-25 17:44:00,
2013-06-25 11:53:00,62.0,29.0,-100.00,West,267,14.0,26.0,29,0.00,,,0.00,788.000000,,2013-06-25 17:53:00,
2013-06-25 12:22:00,64.0,30.0,-100.00,West,262,14.0,25.0,28,0.00,,,0.00,955.000000,,2013-06-25 18:22:00,
2013-06-25 12:34:00,64.0,30.0,-100.00,West,262,14.0,25.0,28,0.00,,,0.00,955.000000,,2013-06-25 18:34:00,
2013-06-25 12:44:00,64.0,30.0,-100.00,West,262,14.0,25.0,28,0.00,,,0.00,955.000000,,2013-06-25 18:44:00,
2013-06-25 12:52:00,64.0,30.0,-100.00,West,262,14.0,25.0,28,0.00,,,0.00,955.000000,,2013-06-25 18:52:00,
2013-06-25 13:22:00,66.0,32.0,-100.00,West,266,11.0,23.0,28,0.00,,,0.00,1030.000000,,2013-06-25 19:22:00,
2013-06-25 13:33:00,66.0,32.0,-100.00,West,266,11.0,23.0,28,0.00,,,0.00,1030.000000,,2013-06-25 19:33:00,
2013-06-25 13:44:00,66.0,32.0,-100.00,West,266,11.0,23.0,28,0.00,,,0.00,1030.000000,,2013-06-25 19:44:00,
2013-06-25 13:53:00,66.0,32.0,-100.00,West,266,11.0,23.0,28,0.00,,,0.00,1030.000000,,2013-06-25 19:53:00,
2013-06-25 14:22:00,68.0,34.0,-100.00,West,275,14.0,26.0,28,0.00,,,0.00,1027.000000,,2013-06-25 20:22:00,
2013-06-25 14:33:00,68.0,34.0,-100.00,West,275,14.0,26.0,28,0.00,,,0.00,1027.000000,,2013-06-25 20:33:00,
2013-06-25 14:42:00,68.0,34.0,-100.00,West,275,14.0,26.0,28,0.00,,,0.00,1027.000000,,2013-06-25 20:42:00,
2013-06-25 14:52:00,68.0,34.0,-100.00,West,275,14.0,26.0,28,0.00,,,0.00,1027.000000,,2013-06-25 20:52:00,
2013-06-25 15:34:00,69.0,34.0,-100.00,West,264,13.0,27.0,27,0.00,,,0.00,968.000000,,2013-06-25 21:34:00,
2013-06-25 15:43:00,69.0,34.0,-100.00,West,264,13.0,27.0,27,0.00,,,0.00,968.000000,,2013-06-25 21:43:00,
2013-06-25 15:53:00,69.0,34.0,-100.00,West,264,13.0,27.0,27,0.00,,,0.00,968.000000,,2013-06-25 21:53:00,
2013-06-25 16:22:00,70.0,33.0,-100.00,West,264,12.0,24.0,25,0.00,,,0.00,898.000000,,2013-06-25 22:22:00,
2013-06-25 16:34:00,70.0,33.0,-100.00,West,264,12.0,24.0,25,0.00,,,0.00,898.000000,,2013-06-25 22:34:00,
2013-06-25 16:42:00,70.0,33.0,-100.00,West,264,12.0,24.0,25,0.00,,,0.00,898.000000,,2013-06-25 22:42:00,
2013-06-25 16:52:00,70.0,33.0,-100.00,West,264,12.0,24.0,25,0.00,,,0.00,898.000000,,2013-06-25 22:52:00,
2013-06-25 17:22:00,67.0,31.0,-100.00,West,271,13.0,27.0,26,0.00,,,0.00,530.000000,,2013-06-25 23:22:00,
2013-06-25 17:34:00,67.0,31.0,-100.00,West,271,13.0,27.0,26,0.00,,,0.00,530.000000,,2013-06-25 23:34:00,
2013-06-25 17:43:00,67.0,31.0,-100.00,West,271,13.0,27.0,26,0.00,,,0.00,530.000000,,2013-06-25 23:43:00,
2013-06-25 17:52:00,67.0,31.0,-100.00,West,271,13.0,27.0,26,0.00,,,0.00,530.000000,,2013-06-25 23:52:00,
2013-06-25 18:22:00,68.0,31.0,-100.00,West,274,12.0,26.0,25,0.00,,,0.00,304.000000,,2013-06-26 00:22:00,
2013-06-25 18:33:00,68.0,31.0,-100.00,West,274,12.0,26.0,25,0.00,,,0.00,304.000000,,2013-06-26 00:33:00,
2013-06-25 18:42:00,68.0,31.0,-100.00,West,274,12.0,26.0,25,0.00,,,0.00,304.000000,,2013-06-26 00:42:00,
2013-06-25 18:52:00,68.0,31.0,-100.00,West,274,12.0,26.0,25,0.00,,,0.00,304.000000,,2013-06-26 00:52:00,
2013-06-25 19:22:00,68.0,31.0,-100.00,West,265,9.0,18.0,25,0.00,,,0.00,218.000000,,2013-06-26 01:22:00,
2013-06-25 19:33:00,68.0,31.0,-100.00,West,265,9.0,18.0,25,0.00,,,0.00,218.000000,,2013-06-26 01:33:00,
2013-06-25 19:43:00,68.0,31.0,-100.00,West,265,9.0,18.0,25,0.00,,,0.00,218.000000,,2013-06-26 01:43:00,
2013-06-25 19:53:00,68.0,31.0,-100.00,West,265,9.0,18.0,25,0.00,,,0.00,218.000000,,2013-06-26 01:53:00,
2013-06-25 20:22:00,66.0,32.0,-100.00,WNW,298,6.0,12.0,28,0.00,,,0.00,221.000000,,2013-06-26 02:22:00,
2013-06-25 20:34:00,66.0,32.0,-100.00,WNW,298,6.0,12.0,28,0.00,,,0.00,221.000000,,2013-06-26 02:34:00,
2013-06-25 20:43:00,66.0,32.0,-100.00,WNW,298,6.0,12.0,28,0.00,,,0.00,221.000000,,2013-06-26 02:43:00,
2013-06-25 20:53:00,66.0,32.0,-100.00,WNW,298,6.0,12.0,28,0.00,,,0.00,221.000000,,2013-06-26 02:53:00,
2013-06-25 21:22:00,59.0,30.0,-100.00,NNW,333,5.0,10.0,33,0.00,,,0.00,23.000000,,2013-06-26 03:22:00,
2013-06-25 21:33:00,59.0,30.0,-100.00,NNW,333,5.0,10.0,33,0.00,,,0.00,23.000000,,2013-06-26 03:33:00,
2013-06-25 21:43:00,59.0,30.0,-100.00,NNW,333,5.0,10.0,33,0.00,,,0.00,23.000000,,2013-06-26 03:43:00,
2013-06-25 21:52:00,59.0,30.0,-100.00,NNW,333,5.0,10.0,33,0.00,,,0.00,23.000000,,2013-06-26 03:52:00,
2013-06-25 22:33:00,56.0,29.0,-100.00,ENE,77,3.0,7.0,36,0.00,,,0.00,0.000000,,2013-06-26 04:33:00,
2013-06-25 22:43:00,56.0,29.0,-100.00,ENE,77,3.0,7.0,36,0.00,,,0.00,0.000000,,2013-06-26 04:43:00,
2013-06-25 22:53:00,56.0,29.0,-100.00,ENE,77,3.0,7.0,36,0.00,,,0.00,0.000000,,2013-06-26 04:53:00,
2013-06-25 23:22:00,53.0,32.0,-100.00,East,87,5.0,8.0,44,0.00,,,0.00,0.000000,,2013-06-26 05:22:00,
2013-06-25 23:34:00,53.0,32.0,-100.00,East,87,5.0,8.0,44,0.00,,,0.00,0.000000,,2013-06-26 05:34:00,
2013-06-25 23:43:00,53.0,32.0,-100.00,East,87,5.0,8.0,44,0.00,,,0.00,0.000000,,2013-06-26 05:43:00,
2013-06-25 23:52:00,53.0,32.0,-100.00,East,87,5.0,8.0,44,0.00,,,0.00,0.000000,,2013-06-26 05:52:00,